Rechercher aéroport 
image banner adimage banner adimage banner ad
image banner ad

KVIS - Visalia Muni

Situé à Visalia, United States

ICAO - VIS, IATA - VIS

Données fournies par Airmate  

Information générale

Coordonnées: N36°19'7" W119°23'34"
Élévation : 295 feet MSL.
Variation magnétique : 14° East
Voir autres Aéroports à California

Données opérationnelles

Special qualification required
Heure actuelle UTC:
Heure actuelle locale:
Météo
METAR: KVIS 210156Z AUTO 29003KT 10SM CLR 26/12 A2994 RMK AO2 SLP143 T02610117
TAF: KVIS 202320Z 2100/2124 VRB03KT P6SM SKC
Voir NOTAMs / SUP AIP / TFR affectant cet aéroport [VIEW]
Fréquences de communication: [VIEW]

Pistes:

Identifiant RWYQFULongueur (ft)Largeur (ft)SurfaceLDA (ft)
12135°6562150ASPH5635
30315°6562150ASPH5635

Coordonnées de l'aéroport

Adresse: Visalia United States

Vue satellite de KVIS